createdAt,value
2019-01-02T00:00:06.995Z,18.70
2019-01-02T00:01:07.200Z,21.80
2019-01-02T00:02:07.210Z,20.20
2019-01-02T00:03:07.328Z,18.00
2019-01-02T00:04:07.465Z,19.80
2019-01-02T00:05:07.587Z,19.30
2019-01-02T00:06:07.714Z,20.20
2019-01-02T00:07:07.840Z,19.80
2019-01-02T00:08:07.969Z,19.90
2019-01-02T00:09:08.101Z,22.60
2019-01-02T00:10:08.235Z,18.70
2019-01-02T00:11:08.360Z,24.40
2019-01-02T00:12:08.487Z,17.60
2019-01-02T00:13:08.947Z,23.00
2019-01-02T00:14:08.747Z,20.60
2019-01-02T00:15:08.877Z,20.40
2019-01-02T00:16:09.003Z,20.70
2019-01-02T00:17:09.131Z,20.50
2019-01-02T00:18:09.292Z,18.60
2019-01-02T00:19:09.451Z,20.20
2019-01-02T00:20:09.584Z,16.10
2019-01-02T00:21:09.698Z,17.40
2019-01-02T00:22:09.832Z,21.20
2019-01-02T00:23:09.964Z,21.70
2019-01-02T00:24:10.094Z,20.00
2019-01-02T00:25:10.224Z,20.00
2019-01-02T00:26:10.353Z,18.70
2019-01-02T00:27:10.484Z,18.90
2019-01-02T00:28:10.614Z,17.00
2019-01-02T00:29:10.736Z,21.30
2019-01-02T00:30:10.863Z,18.10
2019-01-02T00:31:10.989Z,19.30
2019-01-02T00:32:11.117Z,20.40
2019-01-02T00:33:11.247Z,19.20
2019-01-02T00:34:11.372Z,19.80
2019-01-02T00:35:11.547Z,18.60
2019-01-02T00:36:11.678Z,19.70
2019-01-02T00:37:11.804Z,21.70
2019-01-02T00:38:11.936Z,21.30
2019-01-02T00:39:12.059Z,18.50
2019-01-02T00:40:12.185Z,20.70
2019-01-02T00:41:12.320Z,23.80
2019-01-02T00:42:12.442Z,21.50
2019-01-02T00:43:12.577Z,20.80
2019-01-02T00:44:12.706Z,18.00
2019-01-02T00:45:12.839Z,22.00
2019-01-02T00:46:12.976Z,18.10
2019-01-02T00:47:13.097Z,20.40
2019-01-02T00:48:13.223Z,21.90
2019-01-02T00:49:13.356Z,24.00
2019-01-02T00:50:13.484Z,22.10
2019-01-02T00:51:13.611Z,20.10
2019-01-02T00:52:13.732Z,20.90
2019-01-02T00:53:13.859Z,23.10
2019-01-02T00:54:13.985Z,20.40
2019-01-02T00:55:14.113Z,19.90
2019-01-02T00:56:14.241Z,23.90
2019-01-02T00:57:14.372Z,23.70
2019-01-02T00:58:14.498Z,21.80
2019-01-02T00:59:14.627Z,21.90
2019-01-02T01:00:14.754Z,25.60
2019-01-02T01:01:14.887Z,19.80
2019-01-02T01:02:15.013Z,21.50
2019-01-02T01:03:15.156Z,21.70
2019-01-02T01:04:15.269Z,22.00
2019-01-02T01:05:15.396Z,21.20
2019-01-02T01:06:15.516Z,22.00
2019-01-02T01:07:15.654Z,20.30
2019-01-02T01:08:15.779Z,23.00
2019-01-02T01:09:15.928Z,21.80
2019-01-02T01:10:16.054Z,25.60
2019-01-02T01:11:16.180Z,27.00
2019-01-02T01:12:16.310Z,22.50
2019-01-02T01:13:16.430Z,25.30
2019-01-02T01:14:16.570Z,26.80
2019-01-02T01:15:16.733Z,23.50
2019-01-02T01:16:16.824Z,24.90
2019-01-02T01:17:16.954Z,26.70
2019-01-02T01:18:17.085Z,24.50
2019-01-02T01:19:17.213Z,19.30
2019-01-02T01:20:17.337Z,21.50
2019-01-02T01:21:17.465Z,25.20
2019-01-02T01:22:17.590Z,28.40
2019-01-02T01:23:17.713Z,23.50
2019-01-02T01:24:17.838Z,24.40
2019-01-02T01:25:17.971Z,21.90
2019-01-02T01:26:18.093Z,26.50
2019-01-02T01:27:18.217Z,24.10
2019-01-02T01:28:18.347Z,23.10
2019-01-02T01:29:18.475Z,24.80
2019-01-02T01:30:18.609Z,25.00
2019-01-02T01:31:18.748Z,23.70
2019-01-02T01:32:18.885Z,25.20
2019-01-02T01:33:19.047Z,22.20
2019-01-02T01:34:19.134Z,26.10
2019-01-02T01:35:19.264Z,27.60
2019-01-02T01:36:19.398Z,24.80
2019-01-02T01:37:19.524Z,23.90
2019-01-02T01:38:19.651Z,24.10
2019-01-02T01:39:19.790Z,24.20
2019-01-02T01:40:19.920Z,25.80
2019-01-02T01:41:20.047Z,25.30
2019-01-02T01:42:20.173Z,22.60
2019-01-02T01:43:20.306Z,24.70
2019-01-02T01:44:20.437Z,29.10
2019-01-02T01:45:20.557Z,22.10
2019-01-02T01:46:20.685Z,24.30
2019-01-02T01:47:20.807Z,25.80
2019-01-02T01:48:20.943Z,23.40
2019-01-02T01:49:21.719Z,24.80
2019-01-02T01:50:21.249Z,27.00
2019-01-02T01:51:21.381Z,26.70
2019-01-02T01:52:21.607Z,28.20
2019-01-02T01:53:21.607Z,24.70
2019-01-02T01:54:21.736Z,23.40
2019-01-02T01:55:21.862Z,26.70
2019-01-02T01:56:21.989Z,23.40
2019-01-02T01:57:22.117Z,25.50
2019-01-02T01:58:22.247Z,23.50
2019-01-02T01:59:22.385Z,24.40
2019-01-02T02:00:22.510Z,26.00
2019-01-02T02:01:22.633Z,22.70
2019-01-02T02:02:22.765Z,25.30
2019-01-02T02:03:22.893Z,24.90
2019-01-02T02:04:23.017Z,23.50
2019-01-02T02:05:23.147Z,26.60
2019-01-02T02:06:24.233Z,26.30
2019-01-02T02:07:23.391Z,25.50
2019-01-02T02:08:23.522Z,25.20
2019-01-02T02:09:24.245Z,25.00
2019-01-02T02:10:23.765Z,25.40
2019-01-02T02:11:23.896Z,26.80
2019-01-02T02:12:24.018Z,27.50
2019-01-02T02:13:24.149Z,26.80
2019-01-02T02:14:24.282Z,28.20
2019-01-02T02:15:24.409Z,26.20
2019-01-02T02:16:24.535Z,25.20
2019-01-02T02:17:24.666Z,27.00
2019-01-02T02:18:24.794Z,23.40
2019-01-02T02:19:24.925Z,24.50
2019-01-02T02:20:25.055Z,27.20
2019-01-02T02:21:25.187Z,24.40
2019-01-02T02:22:25.307Z,30.60
2019-01-02T02:23:26.232Z,25.40
2019-01-02T02:24:25.640Z,24.00
2019-01-02T02:25:25.765Z,23.70
2019-01-02T02:26:25.936Z,23.30
2019-01-02T02:27:26.055Z,26.80
2019-01-02T02:28:26.185Z,31.00
2019-01-02T02:29:26.314Z,26.90
2019-01-02T02:30:26.445Z,22.80
2019-01-02T02:31:26.570Z,23.50
2019-01-02T02:32:26.709Z,27.00
2019-01-02T02:33:26.842Z,26.60
2019-01-02T02:34:26.973Z,25.40
2019-01-02T02:35:27.097Z,26.40
2019-01-02T02:36:27.223Z,27.50
2019-01-02T02:37:27.346Z,25.00
2019-01-02T02:38:27.482Z,25.40
2019-01-02T02:39:27.613Z,26.70
2019-01-02T02:40:27.740Z,27.00
2019-01-02T02:41:27.867Z,23.30
2019-01-02T02:42:28.005Z,24.10
2019-01-02T02:43:28.134Z,25.50
2019-01-02T02:44:28.265Z,24.70
2019-01-02T02:45:28.391Z,24.60
2019-01-02T02:46:28.517Z,27.80
2019-01-02T02:47:28.647Z,23.60
2019-01-02T02:48:28.771Z,26.00
2019-01-02T02:49:28.905Z,27.30
2019-01-02T02:50:29.035Z,22.80
2019-01-02T02:51:29.161Z,25.30
2019-01-02T02:52:29.341Z,25.70
2019-01-02T02:53:29.424Z,29.50
2019-01-02T02:54:29.554Z,25.70
2019-01-02T02:55:29.674Z,26.10
2019-01-02T02:56:29.809Z,28.00
2019-01-02T02:57:29.936Z,23.00
2019-01-02T02:58:30.068Z,25.40
2019-01-02T02:59:30.196Z,28.40
2019-01-02T03:00:30.325Z,25.40
2019-01-02T03:01:30.452Z,24.80
2019-01-02T03:02:30.583Z,23.90
2019-01-02T03:03:30.713Z,24.20
2019-01-02T03:04:30.842Z,22.00
2019-01-02T03:05:30.969Z,26.20
2019-01-02T03:06:31.100Z,21.10
2019-01-02T03:07:31.227Z,25.70
2019-01-02T03:08:31.351Z,23.20
2019-01-02T03:09:31.476Z,27.90
2019-01-02T03:10:31.608Z,24.40
2019-01-02T03:11:31.736Z,25.40
2019-01-02T03:12:31.861Z,26.00
2019-01-02T03:13:31.988Z,27.00
2019-01-02T03:14:32.118Z,20.40
2019-01-02T03:15:32.247Z,23.30
2019-01-02T03:16:32.375Z,25.40
2019-01-02T03:17:32.499Z,25.60
2019-01-02T03:18:32.626Z,22.20
2019-01-02T03:19:32.753Z,23.60
2019-01-02T03:20:32.877Z,22.80
2019-01-02T03:21:33.009Z,23.60
2019-01-02T03:22:33.142Z,25.70
2019-01-02T03:23:33.269Z,23.50
2019-01-02T03:24:33.393Z,25.70
2019-01-02T03:25:33.523Z,25.00
2019-01-02T03:26:33.650Z,23.30
2019-01-02T03:27:33.782Z,25.00
2019-01-02T03:28:33.914Z,20.60
2019-01-02T03:29:34.038Z,25.60
2019-01-02T03:30:34.172Z,27.10
2019-01-02T03:31:34.296Z,23.90
2019-01-02T03:32:34.423Z,21.50
2019-01-02T03:33:34.554Z,20.40
2019-01-02T03:34:34.679Z,23.80
2019-01-02T03:35:34.809Z,24.40
2019-01-02T03:36:34.960Z,29.40
2019-01-02T03:37:35.083Z,26.50
2019-01-02T03:38:35.214Z,27.40
2019-01-02T03:39:35.336Z,27.30
2019-01-02T03:40:35.486Z,28.10
2019-01-02T03:41:35.617Z,24.20
2019-01-02T03:42:35.745Z,26.40
2019-01-02T03:43:35.874Z,25.00
2019-01-02T03:44:36.025Z,28.90
2019-01-02T03:45:36.147Z,23.50
2019-01-02T03:46:36.276Z,25.10
2019-01-02T03:47:36.410Z,25.00
2019-01-02T03:48:36.583Z,24.20
2019-01-02T03:49:36.685Z,23.60
2019-01-02T03:50:36.813Z,30.10
2019-01-02T03:51:36.948Z,24.00
2019-01-02T03:52:37.095Z,28.70
2019-01-02T03:53:37.214Z,25.20
2019-01-02T03:54:37.343Z,23.50
2019-01-02T03:55:37.471Z,25.00
2019-01-02T03:56:37.621Z,21.80
2019-01-02T03:57:37.744Z,22.10
2019-01-02T03:58:37.874Z,19.80
2019-01-02T03:59:38.005Z,23.40
2019-01-02T04:00:38.154Z,27.00
2019-01-02T04:01:38.279Z,23.80
2019-01-02T04:02:38.411Z,24.60
2019-01-02T04:03:38.538Z,24.00
2019-01-02T04:04:38.684Z,24.00
2019-01-02T04:05:38.811Z,20.90
2019-01-02T04:06:38.939Z,22.20
2019-01-02T04:07:39.071Z,22.70
2019-01-02T04:08:39.221Z,25.90
2019-01-02T04:09:39.343Z,25.60
2019-01-02T04:10:39.480Z,20.90
2019-01-02T04:11:39.602Z,25.00
2019-01-02T04:12:39.754Z,22.60
2019-01-02T04:13:39.879Z,26.80
2019-01-02T04:14:40.008Z,23.70
2019-01-02T04:15:40.138Z,22.20
2019-01-02T04:16:40.283Z,30.10
2019-01-02T04:17:40.409Z,27.90
2019-01-02T04:18:40.530Z,22.20
2019-01-02T04:19:40.661Z,21.00
2019-01-02T04:20:40.822Z,22.80
2019-01-02T04:21:40.951Z,23.00
2019-01-02T04:22:41.085Z,25.00
2019-01-02T04:23:41.216Z,22.00
2019-01-02T04:24:41.352Z,23.00
2019-01-02T04:25:41.478Z,25.30
2019-01-02T04:26:41.611Z,21.50
2019-01-02T04:27:41.760Z,23.40
2019-01-02T04:28:41.889Z,19.70
2019-01-02T04:29:42.006Z,23.60
2019-01-02T04:32:20.172Z,24.50
2019-01-02T04:33:14.175Z,21.20
2019-01-02T04:34:14.300Z,24.40
2019-01-02T04:35:14.465Z,19.50
2019-01-02T04:36:14.595Z,24.30
2019-01-02T04:37:14.720Z,22.70
2019-01-02T04:38:14.850Z,24.20
2019-01-02T04:39:15.001Z,23.00
2019-01-02T04:40:15.125Z,25.40
2019-01-02T04:41:15.254Z,24.20
2019-01-02T04:42:15.398Z,24.20
2019-01-02T04:43:15.589Z,22.60
2019-01-02T04:44:15.589Z,18.70
2019-01-02T04:45:15.721Z,24.60
2019-01-02T04:46:15.868Z,22.50
2019-01-02T04:47:15.991Z,24.80
2019-01-02T04:48:16.125Z,19.70
2019-01-02T04:49:16.258Z,23.20
2019-01-02T04:50:16.386Z,20.50
2019-01-02T04:51:16.509Z,16.50
2019-01-02T04:52:16.651Z,17.40
2019-01-02T04:53:16.780Z,17.80
2019-01-02T04:54:16.906Z,16.50
2019-01-02T04:55:17.049Z,19.20
2019-01-02T04:56:17.174Z,22.80
2019-01-02T04:57:17.317Z,18.10
2019-01-02T04:58:17.449Z,19.70
2019-01-02T04:59:17.577Z,19.30
2019-01-02T05:00:17.710Z,18.40
2019-01-02T05:01:17.835Z,18.60
2019-01-02T05:02:17.961Z,16.80
2019-01-02T05:03:18.102Z,15.10
2019-01-02T05:04:18.223Z,17.70
2019-01-02T05:05:18.348Z,16.80
2019-01-02T05:06:18.481Z,18.90
2019-01-02T05:07:18.611Z,18.00
2019-01-02T05:09:51.153Z,19.70
2019-01-02T05:10:51.277Z,19.30
2019-01-02T05:11:51.406Z,15.30
2019-01-02T05:12:51.532Z,21.70
2019-01-02T05:13:51.657Z,19.00
2019-01-02T05:14:51.788Z,21.30
2019-01-02T05:15:51.915Z,19.20
2019-01-02T05:16:52.041Z,20.70
2019-01-02T05:17:52.167Z,21.70
2019-01-02T05:18:52.297Z,16.90
2019-01-02T05:19:52.435Z,19.80
2019-01-02T05:20:52.556Z,20.90
2019-01-02T05:21:52.687Z,19.80
2019-01-02T05:22:52.812Z,22.50
2019-01-02T05:23:52.945Z,22.20
2019-01-02T05:24:53.072Z,20.60
2019-01-02T05:25:53.198Z,20.50
2019-01-02T05:26:53.327Z,20.40
2019-01-02T05:27:53.457Z,22.00
2019-01-02T05:28:53.588Z,19.80
2019-01-02T05:29:53.713Z,23.60
2019-01-02T05:30:53.841Z,22.70
2019-01-02T05:31:53.969Z,23.80
2019-01-02T05:32:54.098Z,20.40
2019-01-02T05:33:54.230Z,22.10
2019-01-02T05:34:54.355Z,21.80
2019-01-02T05:35:54.483Z,21.70
2019-01-02T05:36:54.610Z,18.90
2019-01-02T05:37:54.739Z,23.20
2019-01-02T05:38:54.871Z,22.30
2019-01-02T05:39:54.999Z,23.50
2019-01-02T05:40:55.126Z,22.90
2019-01-02T05:41:55.251Z,26.30
2019-01-02T05:42:55.389Z,23.30
2019-01-02T05:43:55.514Z,23.90
2019-01-02T05:44:55.641Z,25.20
2019-01-02T05:45:55.775Z,28.20
2019-01-02T05:46:55.908Z,25.50
2019-01-02T05:47:56.032Z,23.90
2019-01-02T05:48:56.167Z,27.80
2019-01-02T05:49:56.299Z,25.40
2019-01-02T05:50:56.434Z,29.20
2019-01-02T05:51:56.558Z,24.70
2019-01-02T05:52:56.683Z,30.30
2019-01-02T05:53:56.811Z,23.10
2019-01-02T05:54:56.940Z,28.10
2019-01-02T05:55:57.067Z,28.40
2019-01-02T05:56:57.202Z,27.30
2019-01-02T05:57:57.389Z,30.00
2019-01-02T05:58:57.499Z,28.40
2019-01-02T05:59:57.626Z,24.50
2019-01-02T06:00:57.779Z,27.50
2019-01-02T06:01:57.949Z,27.40
2019-01-02T06:02:58.076Z,30.70
2019-01-02T06:03:58.207Z,30.30
2019-01-02T06:04:58.340Z,30.00
2019-01-02T06:05:58.486Z,27.20
2019-01-02T06:06:58.612Z,28.90
2019-01-02T06:07:58.744Z,27.60
2019-01-02T06:08:58.877Z,31.80
2019-01-02T06:09:59.034Z,30.20
2019-01-02T06:10:59.200Z,30.10
2019-01-02T06:11:59.328Z,39.40
2019-01-02T06:12:59.461Z,32.70
2019-01-02T06:13:59.598Z,36.90
2019-01-02T06:14:59.723Z,32.00
2019-01-02T06:15:59.856Z,33.10
2019-01-02T06:16:59.984Z,30.80
2019-01-02T06:18:00.136Z,29.50
2019-01-02T06:19:00.256Z,31.90
2019-01-02T06:20:00.382Z,32.00
2019-01-02T06:21:00.509Z,28.60
2019-01-02T06:22:00.650Z,32.30
2019-01-02T06:23:00.772Z,28.20
2019-01-02T06:24:00.900Z,30.60
2019-01-02T06:25:01.039Z,31.40
2019-01-02T06:26:01.172Z,29.10
2019-01-02T06:27:01.301Z,34.10
2019-01-02T06:28:01.426Z,29.60
2019-01-02T06:29:01.587Z,28.20
2019-01-02T06:30:01.773Z,32.20
2019-01-02T06:31:01.899Z,34.90
2019-01-02T06:32:02.026Z,30.30
2019-01-02T06:33:02.187Z,28.00
2019-01-02T06:34:02.288Z,31.90
2019-01-02T06:35:02.412Z,31.60
2019-01-02T06:36:02.539Z,30.50
2019-01-02T06:37:02.678Z,30.10
2019-01-02T06:38:02.864Z,33.00
2019-01-02T06:39:02.993Z,36.20
2019-01-02T06:40:03.127Z,30.90
2019-01-02T06:41:03.264Z,29.10
2019-01-02T06:42:03.400Z,29.90
2019-01-02T06:43:03.535Z,28.00
2019-01-02T06:44:03.676Z,31.10
2019-01-02T06:45:03.823Z,28.80
2019-01-02T06:46:03.947Z,31.00
2019-01-02T06:47:04.076Z,28.80
2019-01-02T06:48:04.205Z,32.80
2019-01-02T06:49:04.360Z,30.70
2019-01-02T06:50:04.485Z,31.90
2019-01-02T06:51:04.615Z,28.90
2019-01-02T06:52:04.749Z,31.70
2019-01-02T06:53:04.914Z,28.60
2019-01-02T06:54:05.119Z,28.20
2019-01-02T06:55:05.122Z,32.90
2019-01-02T06:56:05.250Z,33.40
2019-01-02T06:57:05.401Z,37.60
2019-01-02T06:58:05.555Z,29.20
2019-01-02T06:59:05.692Z,34.10
2019-01-02T07:00:05.830Z,28.80
2019-01-02T07:01:05.962Z,32.20
2019-01-02T07:02:06.198Z,32.00
2019-01-02T07:03:06.206Z,32.20
2019-01-02T07:04:06.328Z,30.30
2019-01-02T07:05:06.486Z,36.10
2019-01-02T07:06:06.610Z,30.60
2019-01-02T07:07:06.740Z,35.40
2019-01-02T07:08:06.869Z,32.00
2019-01-02T07:09:07.010Z,33.20
2019-01-02T07:10:07.138Z,39.60
2019-01-02T07:11:07.262Z,36.50
2019-01-02T07:12:07.394Z,36.50
2019-01-02T07:13:07.535Z,34.70
2019-01-02T07:14:07.658Z,30.20
2019-01-02T07:15:07.788Z,39.30
2019-01-02T07:16:07.918Z,36.60
2019-01-02T07:17:08.084Z,31.70
2019-01-02T07:18:08.204Z,38.40
2019-01-02T07:19:08.333Z,33.50
2019-01-02T07:20:08.463Z,36.40
2019-01-02T07:21:08.643Z,33.80
2019-01-02T07:22:08.782Z,38.90
2019-01-02T07:23:08.914Z,33.40
2019-01-02T07:24:09.047Z,33.60
2019-01-02T07:25:09.182Z,33.30
2019-01-02T07:26:09.304Z,33.30
2019-01-02T07:27:09.441Z,35.50
2019-01-02T07:28:09.571Z,35.90
2019-01-02T07:29:09.718Z,31.50
2019-01-02T07:30:09.845Z,32.20
2019-01-02T07:31:09.974Z,33.30
2019-01-02T07:32:10.105Z,31.20
2019-01-02T07:33:10.280Z,36.10
2019-01-02T07:34:10.399Z,29.50
2019-01-02T07:35:10.523Z,36.70
2019-01-02T07:36:10.646Z,35.10
2019-01-02T07:37:10.826Z,34.20
2019-01-02T07:38:10.948Z,34.00
2019-01-02T07:39:11.081Z,32.50
2019-01-02T07:40:11.218Z,33.80
2019-01-02T07:41:11.375Z,35.40
2019-01-02T07:42:11.583Z,33.20
2019-01-02T07:43:11.588Z,34.40
2019-01-02T07:44:11.717Z,35.90
2019-01-02T07:45:11.863Z,34.70
2019-01-02T07:46:11.988Z,32.80
2019-01-02T07:47:12.118Z,27.60
2019-01-02T07:48:12.294Z,32.60
2019-01-02T07:49:12.419Z,36.80
2019-01-02T07:50:12.557Z,32.50
2019-01-02T07:51:12.675Z,32.00
2019-01-02T07:52:12.833Z,32.50
2019-01-02T07:53:12.964Z,39.30
2019-01-02T07:54:13.111Z,35.40
2019-01-02T07:55:13.236Z,33.00
2019-01-02T07:56:13.393Z,32.80
2019-01-02T07:57:13.511Z,38.50
2019-01-02T07:58:13.634Z,33.30
2019-01-02T07:59:13.769Z,34.10
2019-01-02T08:00:13.894Z,31.80
2019-01-02T08:01:14.028Z,39.50
2019-01-02T08:02:14.162Z,34.50
2019-01-02T08:03:14.284Z,35.10
2019-01-02T08:04:14.418Z,36.40
2019-01-02T08:05:14.545Z,32.90
2019-01-02T08:06:14.670Z,35.20
2019-01-02T08:07:14.797Z,35.70
2019-01-02T08:08:14.927Z,39.50
2019-01-02T08:09:15.057Z,33.50
2019-01-02T08:10:15.181Z,33.30
2019-01-02T08:11:15.309Z,31.10
2019-01-02T08:12:15.441Z,32.50
2019-01-02T08:13:15.577Z,34.10
2019-01-02T08:14:15.723Z,31.70
2019-01-02T08:15:15.842Z,31.40
2019-01-02T08:16:15.970Z,31.70
2019-01-02T08:17:16.101Z,28.20
2019-01-02T08:18:16.234Z,33.10
2019-01-02T08:19:16.360Z,35.40
2019-01-02T08:20:16.489Z,30.30
2019-01-02T08:21:16.617Z,32.70
2019-01-02T08:22:16.738Z,31.20
2019-01-02T08:23:16.867Z,31.40
2019-01-02T08:24:17.001Z,34.40
2019-01-02T08:25:17.129Z,34.40
2019-01-02T08:26:17.252Z,35.90
2019-01-02T08:27:17.382Z,40.30
2019-01-02T08:28:17.514Z,31.80
2019-01-02T08:29:17.644Z,30.90
2019-01-02T08:30:17.774Z,36.30
2019-01-02T08:31:17.896Z,38.00
2019-01-02T08:32:18.043Z,30.90
2019-01-02T08:33:18.171Z,39.30
2019-01-02T08:34:18.297Z,36.60
2019-01-02T08:35:18.433Z,33.50
2019-01-02T08:36:18.559Z,33.60
2019-01-02T08:37:18.688Z,34.70
2019-01-02T08:38:18.815Z,30.70
2019-01-02T08:39:18.942Z,33.80
2019-01-02T08:40:19.078Z,28.80
2019-01-02T08:41:19.205Z,36.20
2019-01-02T08:42:19.334Z,31.10
2019-01-02T08:43:19.463Z,31.30
2019-01-02T08:44:19.587Z,30.20
2019-01-02T08:45:19.736Z,25.40
2019-01-02T08:46:19.863Z,28.80
2019-01-02T08:47:19.991Z,26.50
2019-01-02T08:48:20.584Z,21.30
2019-01-02T08:49:20.248Z,25.00
2019-01-02T08:50:20.375Z,21.80
2019-01-02T08:51:20.502Z,19.90
2019-01-02T08:52:20.634Z,27.00
2019-01-02T08:53:20.761Z,22.70
2019-01-02T08:54:20.889Z,23.10
2019-01-02T08:55:21.025Z,23.30
2019-01-02T08:56:21.154Z,21.70
2019-01-02T08:57:21.286Z,19.00
2019-01-02T08:58:21.414Z,19.90
2019-01-02T08:59:21.536Z,18.40
2019-01-02T09:00:21.666Z,20.60
2019-01-02T09:01:21.825Z,19.70
2019-01-02T09:02:21.954Z,19.10
2019-01-02T09:03:22.092Z,20.00
2019-01-02T09:04:22.233Z,18.90
2019-01-02T09:05:22.385Z,21.10
2019-01-02T09:06:22.510Z,21.50
2019-01-02T09:07:22.642Z,20.40
2019-01-02T09:08:22.772Z,17.40
2019-01-02T09:09:22.915Z,21.30
2019-01-02T09:10:23.037Z,22.20
2019-01-02T09:11:23.170Z,22.10
2019-01-02T09:12:23.298Z,25.80
2019-01-02T09:13:23.461Z,22.00
2019-01-02T09:14:23.587Z,26.40
2019-01-02T09:15:23.717Z,26.50
2019-01-02T09:16:23.850Z,25.40
2019-01-02T09:17:23.999Z,31.40
2019-01-02T09:18:24.119Z,25.10
2019-01-02T09:19:24.247Z,25.90
2019-01-02T09:20:24.372Z,31.80
2019-01-02T09:21:24.502Z,24.30
2019-01-02T09:22:24.629Z,31.60
2019-01-02T09:23:24.768Z,29.70
2019-01-02T09:24:24.894Z,26.90
2019-01-02T09:25:25.027Z,28.90
2019-01-02T09:26:25.168Z,31.40
2019-01-02T09:27:25.298Z,28.70
2019-01-02T09:28:25.419Z,29.60
2019-01-02T09:29:25.549Z,29.30
2019-01-02T09:30:25.706Z,30.80
2019-01-02T09:31:25.839Z,26.90
2019-01-02T09:32:25.963Z,30.50
2019-01-02T09:33:26.097Z,29.70
2019-01-02T09:34:26.269Z,25.10
2019-01-02T09:35:26.399Z,29.10
2019-01-02T09:36:26.544Z,27.30
2019-01-02T09:37:26.665Z,27.40
2019-01-02T09:38:26.803Z,28.20
2019-01-02T09:39:26.927Z,27.60
2019-01-02T09:40:27.082Z,25.90
2019-01-02T09:41:27.231Z,30.20
2019-01-02T09:42:27.370Z,24.00
2019-01-02T09:43:27.502Z,23.50
2019-01-02T09:44:27.658Z,26.70
2019-01-02T09:45:27.786Z,31.70
2019-01-02T09:46:27.940Z,27.60
2019-01-02T09:47:28.056Z,27.10
2019-01-02T09:48:28.188Z,26.40
2019-01-02T09:49:28.308Z,28.90
2019-01-02T09:50:28.434Z,25.10
2019-01-02T09:51:28.561Z,23.80
2019-01-02T09:52:28.731Z,21.40
2019-01-02T09:53:28.852Z,26.00
2019-01-02T09:54:28.980Z,24.60
2019-01-02T09:55:29.109Z,23.40
2019-01-02T09:56:29.244Z,25.70
2019-01-02T09:57:29.377Z,28.40
2019-01-02T09:58:29.512Z,26.60
2019-01-02T09:59:29.643Z,21.00
2019-01-02T10:00:29.840Z,26.00
2019-01-02T10:01:29.839Z,21.70
2019-01-02T10:02:29.970Z,18.20
2019-01-02T10:03:30.117Z,23.60
2019-01-02T10:04:30.239Z,23.00
2019-01-02T10:05:30.370Z,21.80
2019-01-02T10:06:30.502Z,20.60
2019-01-02T10:07:30.629Z,25.70
2019-01-02T10:08:30.771Z,21.90
2019-01-02T10:09:30.904Z,20.50
2019-01-02T10:10:31.032Z,21.80
2019-01-02T10:11:31.160Z,17.70
2019-01-02T10:12:31.288Z,23.50
2019-01-02T10:13:31.416Z,23.80
2019-01-02T10:14:31.543Z,23.10
2019-01-02T10:15:31.673Z,21.50
2019-01-02T10:16:31.803Z,22.60
2019-01-02T10:17:32.657Z,20.90
2019-01-02T10:18:32.066Z,21.20
2019-01-02T10:19:32.200Z,21.50
2019-01-02T10:20:32.415Z,19.70
2019-01-02T10:21:32.412Z,16.50
2019-01-02T10:22:32.546Z,18.10
2019-01-02T10:23:32.677Z,20.10
2019-01-02T10:24:32.805Z,20.10
2019-01-02T10:25:32.937Z,18.00
2019-01-02T10:26:33.065Z,22.40
2019-01-02T10:27:33.195Z,21.40
2019-01-02T10:28:33.330Z,20.20
2019-01-02T10:29:33.461Z,18.10
2019-01-02T10:30:33.600Z,14.90
2019-01-02T10:31:33.744Z,18.30
2019-01-02T10:32:33.873Z,17.40
2019-01-02T10:33:34.000Z,17.10
2019-01-02T10:34:34.658Z,17.70
2019-01-02T10:35:34.253Z,17.10
2019-01-02T10:36:34.379Z,16.70
2019-01-02T10:37:34.520Z,19.10
2019-01-02T10:38:34.642Z,17.60
2019-01-02T10:39:34.779Z,15.60
2019-01-02T10:40:34.903Z,19.10
2019-01-02T10:41:35.036Z,20.80
2019-01-02T10:42:35.164Z,15.00
2019-01-02T10:43:35.295Z,16.40
2019-01-02T10:44:35.424Z,16.60
2019-01-02T10:45:35.556Z,18.10
2019-01-02T10:46:35.683Z,18.00
2019-01-02T10:47:35.815Z,12.60
2019-01-02T10:48:35.938Z,15.20
2019-01-02T10:49:36.072Z,15.30
2019-01-02T10:50:36.204Z,19.60
2019-01-02T10:51:36.343Z,15.30
2019-01-02T10:52:36.482Z,16.10
2019-01-02T10:53:36.624Z,16.30
2019-01-02T10:54:36.741Z,17.60
2019-01-02T10:55:36.878Z,15.40
2019-01-02T10:56:37.014Z,16.60
2019-01-02T10:57:37.141Z,19.00
2019-01-02T10:58:37.269Z,16.00
2019-01-02T10:59:37.398Z,15.60
2019-01-02T11:00:37.532Z,14.60
2019-01-02T11:01:37.662Z,16.90
2019-01-02T11:02:37.796Z,15.30
2019-01-02T11:03:37.927Z,16.40
2019-01-02T11:04:38.053Z,13.70
2019-01-02T11:05:38.186Z,15.10
2019-01-02T11:06:38.316Z,15.40
2019-01-02T11:07:38.452Z,18.80
2019-01-02T11:08:38.581Z,15.20
2019-01-02T11:09:38.709Z,17.90
2019-01-02T11:10:38.843Z,16.80
2019-01-02T11:11:38.979Z,11.90
2019-01-02T11:12:39.114Z,14.60
2019-01-02T11:13:39.253Z,13.60
2019-01-02T11:14:39.382Z,16.60
2019-01-02T11:15:39.509Z,14.50
2019-01-02T11:16:39.646Z,12.70
2019-01-02T11:17:39.778Z,15.00
2019-01-02T11:18:39.908Z,21.80
2019-01-02T11:19:40.044Z,19.30
2019-01-02T11:20:40.676Z,22.40
2019-01-02T11:23:12.581Z,14.70
2019-01-02T11:24:12.575Z,15.10
2019-01-02T11:25:12.702Z,12.10
2019-01-02T11:26:12.835Z,17.00
2019-01-02T11:27:12.988Z,15.60
2019-01-02T11:28:38.377Z,17.10
2019-01-02T11:29:13.253Z,11.40
2019-01-02T11:30:13.380Z,12.30
2019-01-02T11:31:13.530Z,15.30
2019-01-02T11:32:31.015Z,12.60
2019-01-02T11:33:13.772Z,13.30
2019-01-02T11:34:13.913Z,22.90
2019-01-02T11:35:14.076Z,14.60
2019-01-02T11:36:14.208Z,13.20
2019-01-02T11:37:14.341Z,12.20
2019-01-02T11:38:14.476Z,13.70
2019-01-02T11:39:14.624Z,16.70
2019-01-02T11:40:16.352Z,9.80
2019-01-02T11:41:14.863Z,15.70
2019-01-02T11:42:15.003Z,12.80
2019-01-02T11:43:15.149Z,15.90
2019-01-02T11:44:21.152Z,20.20
2019-01-02T11:45:15.367Z,12.40
2019-01-02T11:46:15.496Z,11.40
2019-01-02T11:47:15.651Z,13.70
2019-01-02T11:48:15.784Z,14.00
2019-01-02T11:49:15.946Z,16.80
2019-01-02T11:50:16.088Z,11.20
2019-01-02T11:51:16.214Z,14.40
2019-01-02T11:52:16.355Z,15.80
2019-01-02T11:53:16.487Z,12.70
2019-01-02T11:54:16.644Z,15.70
2019-01-02T11:55:16.774Z,14.60
2019-01-02T11:56:16.903Z,13.80
2019-01-02T11:57:17.045Z,15.20
2019-01-02T11:58:17.189Z,19.20
2019-01-02T11:59:17.398Z,15.00
2019-01-02T12:00:17.408Z,16.80
2019-01-02T12:01:17.537Z,18.40
2019-01-02T12:02:17.692Z,20.00
2019-01-02T12:03:24.346Z,18.80
2019-01-02T12:04:17.980Z,30.20
2019-01-02T12:05:18.114Z,11.10
2019-01-02T12:06:18.284Z,13.10
2019-01-02T12:07:18.410Z,12.10
2019-01-02T12:08:18.553Z,15.90
2019-01-02T12:09:18.692Z,21.10
2019-01-02T12:10:18.848Z,18.40
2019-01-02T12:11:25.998Z,11.80
2019-01-02T12:12:19.135Z,10.10
2019-01-02T12:13:19.270Z,9.90
2019-01-02T12:14:19.409Z,10.10
2019-01-02T12:15:34.909Z,7.60
2019-01-02T12:16:19.662Z,8.10
2019-01-02T12:17:19.806Z,7.80
2019-01-02T12:18:19.958Z,8.80
2019-01-02T12:19:20.195Z,7.90
2019-01-02T12:20:20.209Z,7.80
2019-01-02T12:21:20.367Z,9.70
2019-01-02T12:22:20.534Z,7.90
2019-01-02T12:23:20.667Z,8.30
2019-01-02T12:24:20.800Z,9.10
2019-01-02T12:25:20.940Z,8.90
2019-01-02T12:26:21.102Z,6.60
2019-01-02T12:27:21.240Z,6.70
2019-01-02T12:28:21.375Z,5.60
2019-01-02T12:29:21.515Z,8.70
2019-01-02T12:30:21.693Z,6.00
2019-01-02T12:31:21.829Z,6.20
2019-01-02T12:32:21.968Z,8.90
2019-01-02T12:33:22.154Z,8.20
2019-01-02T12:34:22.341Z,9.10
2019-01-02T12:35:22.448Z,6.90
2019-01-02T12:36:22.585Z,7.20
2019-01-02T12:37:22.721Z,9.00
2019-01-02T12:38:22.888Z,8.00
2019-01-02T12:39:23.039Z,9.50
2019-01-02T12:40:23.176Z,7.50
2019-01-02T12:41:23.319Z,5.70
2019-01-02T12:42:23.479Z,10.30
2019-01-02T12:43:23.617Z,7.70
2019-01-02T12:44:23.757Z,7.80
2019-01-02T12:45:23.924Z,6.80
2019-01-02T12:46:24.055Z,7.60
2019-01-02T12:47:24.203Z,5.90
2019-01-02T12:48:24.337Z,8.30
2019-01-02T12:49:24.495Z,9.60
2019-01-02T12:50:24.634Z,8.30
2019-01-02T12:51:24.773Z,7.60
2019-01-02T12:52:24.908Z,7.30
2019-01-02T12:53:25.062Z,7.50
2019-01-02T12:54:25.196Z,5.30
2019-01-02T12:55:25.335Z,5.90
2019-01-02T12:56:25.474Z,6.50
2019-01-02T12:57:25.642Z,3.80
2019-01-02T12:58:25.771Z,6.90
2019-01-02T12:59:25.905Z,6.30
2019-01-02T13:00:26.081Z,5.10